You are listening to:
KOSH Fisk VFR Approach #1 - Oshkosh, Wisconsin, United States

KOSH 040253Z 22003KT 10SM CLR 22/16 A2975 RMK AO2 SLP062 T02170161 53003

If stream doesn't start automatically press the play button
If stream stops then reload player then press play